Robert Gray Army Air Field Airport
KGRK : now visible

Airfield :











YOU CAN JOIN US ON...

 
LOGIN :

Register | Disclaimer

   EN    FR    IT 

 









Legend :    VFR   Marginal VFR   IFR   Intensive IFR   Very Intensive IFR
Visi :
Ceiling :
>= 8 km
>= 3000ft
5 to 8 km
1000 to 3000 ft
1500m to 5 km
500 to 1000 ft
800 to 1500m
200 to 500 ft
< 800m
< 200 ft
Symbols :   Thunderstorms  Fog  Heavy snow  Heavy precipitations  Wind > 20 kt






- Airport Elevation : 1015 ft
- IATA code : GRK


KGRK - Robert Gray Army Air Field

CURRENT METAR :
  • 060158Z AUTO 15003KT 10SM OVC026 16/15 A3001 RMK AO2 SLP161 T01620146

EXPIRED METARs :
  • 060123Z AUTO 00000KT 10SM SCT014 OVC025 16/14 A3001 RMK AO2 CIG 014V025 SLP161
  • 060103Z AUTO 15003KT 10SM BKN013 OVC025 16/14 A3001 RMK AO2 CIG 013V025 BKN V SCT SLP161
  • 060058Z AUTO 16005KT 10SM SCT013 OVC025 16/14 A3001 RMK AO2 CIG 013V025 SLP161
  • 060028Z AUTO 17005KT 10SM BKN014 OVC021 17/14 A3001 RMK AO2 SLP161
  • 060003Z AUTO 15006KT 9SM OVC014 17/14 A3001 RMK AO2 SLP161

TAF TAF KGRK
Valid from the 06 at 00:00 until the 07 at 06:00 UTC


060000Z 0600/0706 15009KT 9999 BKN012 OVC020 QNH2998INS
TEMPO 0601/0603 OVC015
BECMG 0605/0606 17006KT 8000 BR OVC008 QNH2995INS
BECMG 0608/0609 18006KT 4800 BR OVC005 QNH2992INS
BECMG 0616/0617 15009KT 9999 NSW OVC010 QNH3001INS
BECMG 0620/0621 16009KT 9999 SCT010 BKN015 QNH2993INS
BECMG 0701/0702 17006KT 9999 BKN006 OVC012 QNH2993INS TX21/0622Z TN13/0612Z



MET'MAP, your aeronautical weather chart ! - Copyright ORBIFLY December 2007 - Disclaimer

ORBIFLY MET'MAP TEAM :

Programming & Development : Alexandra Zaïnal
Concept & original design : Baudouin d'Aumeries
Assistance for programming : Marc-Olivier Méhu
Technical & hardware support : Manuel Goepfert

Contact : metmap@orbifly.com




SOURCES & CREDITS :

   NOAA       Earth
Advisory